sensor_id;sensor_type;location;lat;lon;timestamp;P1;durP1;ratioP1;P2;durP2;ratioP2
3177;SDS011;38141;42.666;23.344;2023-02-01T00:02:09;7.17;;;5.60;;
3177;SDS011;38141;42.666;23.344;2023-02-01T00:04:36;13.13;;;6.40;;
3177;SDS011;38141;42.666;23.344;2023-02-01T00:07:02;10.57;;;6.60;;
3177;SDS011;38141;42.666;23.344;2023-02-01T00:09:29;10.77;;;6.30;;
3177;SDS011;38141;42.666;23.344;2023-02-01T00:11:56;9.37;;;6.20;;
3177;SDS011;38141;42.666;23.344;2023-02-01T00:14:28;8.37;;;5.87;;
3177;SDS011;38141;42.666;23.344;2023-02-01T00:16:55;7.77;;;5.93;;
3177;SDS011;38141;42.666;23.344;2023-02-01T00:19:21;8.00;;;5.90;;
3177;SDS011;38141;42.666;23.344;2023-02-01T00:21:48;8.27;;;5.87;;
3177;SDS011;38141;42.666;23.344;2023-02-01T00:24:15;9.57;;;6.50;;
3177;SDS011;38141;42.666;23.344;2023-02-01T00:26:42;9.10;;;6.20;;
3177;SDS011;38141;42.666;23.344;2023-02-01T00:29:13;9.50;;;6.47;;
3177;SDS011;38141;42.666;23.344;2023-02-01T00:31:42;8.33;;;5.80;;
3177;SDS011;38141;42.666;23.344;2023-02-01T00:34:10;10.70;;;5.73;;
3177;SDS011;38141;42.666;23.344;2023-02-01T00:36:39;8.13;;;6.10;;
3177;SDS011;38141;42.666;23.344;2023-02-01T00:39:23;9.53;;;6.47;;
3177;SDS011;38141;42.666;23.344;2023-02-01T00:41:50;10.30;;;6.20;;
3177;SDS011;38141;42.666;23.344;2023-02-01T00:44:17;10.73;;;6.07;;
3177;SDS011;38141;42.666;23.344;2023-02-01T00:46:45;9.33;;;6.10;;
3177;SDS011;38141;42.666;23.344;2023-02-01T00:49:12;7.13;;;6.10;;
3177;SDS011;38141;42.666;23.344;2023-02-01T00:51:39;6.10;;;5.50;;
3177;SDS011;38141;42.666;23.344;2023-02-01T00:54:08;8.00;;;5.77;;
3177;SDS011;38141;42.666;23.344;2023-02-01T00:56:35;10.30;;;5.40;;
3177;SDS011;38141;42.666;23.344;2023-02-01T00:59:02;7.87;;;5.47;;
3177;SDS011;38141;42.666;23.344;2023-02-01T01:01:28;8.00;;;4.90;;
3177;SDS011;38141;42.666;23.344;2023-02-01T01:03:57;6.20;;;4.80;;
3177;SDS011;38141;42.666;23.344;2023-02-01T01:06:26;5.10;;;4.30;;
3177;SDS011;38141;42.666;23.344;2023-02-01T01:08:55;7.57;;;4.87;;
3177;SDS011;38141;42.666;23.344;2023-02-01T01:11:24;8.27;;;4.00;;
3177;SDS011;38141;42.666;23.344;2023-02-01T01:13:52;6.00;;;4.60;;
3177;SDS011;38141;42.666;23.344;2023-02-01T01:16:21;6.00;;;4.10;;
3177;SDS011;38141;42.666;23.344;2023-02-01T01:18:49;5.40;;;4.80;;
3177;SDS011;38141;42.666;23.344;2023-02-01T01:21:18;7.40;;;4.40;;
3177;SDS011;38141;42.666;23.344;2023-02-01T01:23:45;10.20;;;4.90;;
3177;SDS011;38141;42.666;23.344;2023-02-01T01:26:13;4.80;;;4.00;;
3177;SDS011;38141;42.666;23.344;2023-02-01T01:28:41;6.27;;;4.80;;
3177;SDS011;38141;42.666;23.344;2023-02-01T01:31:09;5.57;;;4.57;;
3177;SDS011;38141;42.666;23.344;2023-02-01T01:33:36;5.10;;;4.43;;
3177;SDS011;38141;42.666;23.344;2023-02-01T01:36:04;7.53;;;4.57;;
3177;SDS011;38141;42.666;23.344;2023-02-01T01:38:32;6.10;;;4.10;;
3177;SDS011;38141;42.666;23.344;2023-02-01T01:41:01;5.03;;;4.20;;
3177;SDS011;38141;42.666;23.344;2023-02-01T01:46:15;6.40;;;4.40;;
3177;SDS011;38141;42.666;23.344;2023-02-01T01:48:49;4.90;;;4.20;;
3177;SDS011;38141;42.666;23.344;2023-02-01T01:51:20;6.30;;;4.30;;
3177;SDS011;38141;42.666;23.344;2023-02-01T01:53:53;5.17;;;4.23;;
3177;SDS011;38141;42.666;23.344;2023-02-01T01:56:25;7.00;;;4.27;;
3177;SDS011;38141;42.666;23.344;2023-02-01T01:58:54;7.30;;;4.30;;
3177;SDS011;38141;42.666;23.344;2023-02-01T02:01:22;6.77;;;4.97;;
3177;SDS011;38141;42.666;23.344;2023-02-01T02:03:49;5.67;;;4.60;;
3177;SDS011;38141;42.666;23.344;2023-02-01T02:06:18;5.03;;;4.30;;
3177;SDS011;38141;42.666;23.344;2023-02-01T02:08:54;4.43;;;4.03;;
3177;SDS011;38141;42.666;23.344;2023-02-01T02:11:20;6.53;;;4.40;;
3177;SDS011;38141;42.666;23.344;2023-02-01T02:13:48;5.83;;;4.40;;
3177;SDS011;38141;42.666;23.344;2023-02-01T02:16:24;5.80;;;4.60;;
3177;SDS011;38141;42.666;23.344;2023-02-01T02:19:05;5.57;;;4.27;;
3177;SDS011;38141;42.666;23.344;2023-02-01T02:21:52;5.80;;;4.63;;
3177;SDS011;38141;42.666;23.344;2023-02-01T02:24:36;7.03;;;4.17;;
3177;SDS011;38141;42.666;23.344;2023-02-01T02:27:19;4.53;;;3.93;;
3177;SDS011;38141;42.666;23.344;2023-02-01T02:30:02;5.13;;;4.63;;
3177;SDS011;38141;42.666;23.344;2023-02-01T02:36:04;5.57;;;3.73;;
3177;SDS011;38141;42.666;23.344;2023-02-01T02:38:38;5.07;;;4.33;;
3177;SDS011;38141;42.666;23.344;2023-02-01T02:41:13;4.83;;;3.87;;
3177;SDS011;38141;42.666;23.344;2023-02-01T02:43:58;13.50;;;4.30;;
3177;SDS011;38141;42.666;23.344;2023-02-01T02:46:48;4.90;;;4.23;;
3177;SDS011;38141;42.666;23.344;2023-02-01T02:49:34;5.63;;;4.23;;
3177;SDS011;38141;42.666;23.344;2023-02-01T02:52:04;5.13;;;4.00;;
3177;SDS011;38141;42.666;23.344;2023-02-01T02:54:54;9.57;;;4.10;;
3177;SDS011;38141;42.666;23.344;2023-02-01T02:57:23;6.80;;;4.83;;
3177;SDS011;38141;42.666;23.344;2023-02-01T03:00:12;6.07;;;4.20;;
3177;SDS011;38141;42.666;23.344;2023-02-01T03:02:59;7.13;;;3.87;;
3177;SDS011;38141;42.666;23.344;2023-02-01T03:05:46;6.07;;;4.77;;
3177;SDS011;38141;42.666;23.344;2023-02-01T03:08:17;3.60;;;3.30;;
3177;SDS011;38141;42.666;23.344;2023-02-01T03:10:47;7.27;;;3.93;;
3177;SDS011;38141;42.666;23.344;2023-02-01T03:13:22;3.53;;;3.23;;
3177;SDS011;38141;42.666;23.344;2023-02-01T03:15:55;5.30;;;3.23;;
3177;SDS011;38141;42.666;23.344;2023-02-01T03:18:28;8.37;;;3.70;;
3177;SDS011;38141;42.666;23.344;2023-02-01T03:21:00;3.60;;;3.30;;
3177;SDS011;38141;42.666;23.344;2023-02-01T03:23:32;5.20;;;3.20;;
3177;SDS011;38141;42.666;23.344;2023-02-01T03:26:02;5.63;;;3.63;;
3177;SDS011;38141;42.666;23.344;2023-02-01T03:28:30;5.57;;;3.37;;
3177;SDS011;38141;42.666;23.344;2023-02-01T03:31:00;5.10;;;4.17;;
3177;SDS011;38141;42.666;23.344;2023-02-01T03:33:27;3.50;;;2.90;;
3177;SDS011;38141;42.666;23.344;2023-02-01T03:35:57;4.80;;;3.03;;
3177;SDS011;38141;42.666;23.344;2023-02-01T03:38:33;4.87;;;3.50;;
3177;SDS011;38141;42.666;23.344;2023-02-01T03:41:08;3.53;;;3.20;;
3177;SDS011;38141;42.666;23.344;2023-02-01T03:43:43;4.50;;;3.67;;
3177;SDS011;38141;42.666;23.344;2023-02-01T03:46:18;4.23;;;3.37;;
3177;SDS011;38141;42.666;23.344;2023-02-01T03:48:52;4.37;;;3.60;;
3177;SDS011;38141;42.666;23.344;2023-02-01T03:51:20;8.57;;;3.20;;
3177;SDS011;38141;42.666;23.344;2023-02-01T03:53:51;4.30;;;3.10;;
3177;SDS011;38141;42.666;23.344;2023-02-01T03:56:19;5.77;;;4.27;;
3177;SDS011;38141;42.666;23.344;2023-02-01T03:58:49;5.10;;;3.77;;
3177;SDS011;38141;42.666;23.344;2023-02-01T04:01:24;6.43;;;3.47;;
3177;SDS011;38141;42.666;23.344;2023-02-01T04:03:53;3.93;;;3.40;;
3177;SDS011;38141;42.666;23.344;2023-02-01T04:06:20;4.53;;;3.40;;
3177;SDS011;38141;42.666;23.344;2023-02-01T04:08:47;4.10;;;3.30;;
3177;SDS011;38141;42.666;23.344;2023-02-01T04:11:15;4.60;;;3.40;;
3177;SDS011;38141;42.666;23.344;2023-02-01T04:13:42;8.83;;;4.30;;
3177;SDS011;38141;42.666;23.344;2023-02-01T04:16:11;5.70;;;3.20;;
3177;SDS011;38141;42.666;23.344;2023-02-01T04:18:56;5.00;;;3.63;;
3177;SDS011;38141;42.666;23.344;2023-02-01T04:21:23;4.13;;;3.73;;
3177;SDS011;38141;42.666;23.344;2023-02-01T04:23:50;5.70;;;3.50;;
3177;SDS011;38141;42.666;23.344;2023-02-01T04:26:19;5.80;;;3.57;;
3177;SDS011;38141;42.666;23.344;2023-02-01T04:28:46;5.70;;;3.87;;
3177;SDS011;38141;42.666;23.344;2023-02-01T04:31:13;7.43;;;4.40;;
3177;SDS011;38141;42.666;23.344;2023-02-01T04:33:40;6.23;;;4.40;;
3177;SDS011;38141;42.666;23.344;2023-02-01T04:36:07;5.33;;;4.10;;
3177;SDS011;38141;42.666;23.344;2023-02-01T04:38:34;4.50;;;3.90;;
3177;SDS011;38141;42.666;23.344;2023-02-01T04:41:01;6.47;;;4.20;;
3177;SDS011;38141;42.666;23.344;2023-02-01T04:43:29;7.00;;;4.40;;
3177;SDS011;38141;42.666;23.344;2023-02-01T04:45:56;9.27;;;4.63;;
3177;SDS011;38141;42.666;23.344;2023-02-01T04:48:23;6.43;;;5.00;;
3177;SDS011;38141;42.666;23.344;2023-02-01T04:50:49;7.67;;;4.63;;
3177;SDS011;38141;42.666;23.344;2023-02-01T04:53:16;8.00;;;4.73;;
3177;SDS011;38141;42.666;23.344;2023-02-01T04:55:43;6.67;;;4.93;;
3177;SDS011;38141;42.666;23.344;2023-02-01T04:58:29;5.60;;;4.67;;
3177;SDS011;38141;42.666;23.344;2023-02-01T05:00:56;8.67;;;4.80;;
3177;SDS011;38141;42.666;23.344;2023-02-01T05:03:23;6.03;;;4.23;;
3177;SDS011;38141;42.666;23.344;2023-02-01T05:05:50;6.90;;;4.40;;
3177;SDS011;38141;42.666;23.344;2023-02-01T05:08:18;8.13;;;4.63;;
3177;SDS011;38141;42.666;23.344;2023-02-01T05:10:47;6.70;;;4.37;;
3177;SDS011;38141;42.666;23.344;2023-02-01T05:13:14;4.87;;;4.00;;
3177;SDS011;38141;42.666;23.344;2023-02-01T05:15:59;8.67;;;5.43;;
3177;SDS011;38141;42.666;23.344;2023-02-01T05:18:26;10.77;;;5.00;;
3177;SDS011;38141;42.666;23.344;2023-02-01T05:20:53;12.27;;;5.20;;
3177;SDS011;38141;42.666;23.344;2023-02-01T05:23:20;7.73;;;5.13;;
3177;SDS011;38141;42.666;23.344;2023-02-01T05:25:46;11.53;;;5.10;;
3177;SDS011;38141;42.666;23.344;2023-02-01T05:28:13;15.13;;;5.37;;
3177;SDS011;38141;42.666;23.344;2023-02-01T05:30:40;10.50;;;5.73;;
3177;SDS011;38141;42.666;23.344;2023-02-01T05:33:08;14.50;;;5.67;;
3177;SDS011;38141;42.666;23.344;2023-02-01T05:35:35;6.47;;;4.87;;
3177;SDS011;38141;42.666;23.344;2023-02-01T05:38:01;5.60;;;5.00;;
3177;SDS011;38141;42.666;23.344;2023-02-01T05:40:28;7.13;;;5.80;;
3177;SDS011;38141;42.666;23.344;2023-02-01T05:42:55;7.80;;;5.33;;
3177;SDS011;38141;42.666;23.344;2023-02-01T05:45:22;8.53;;;5.67;;
3177;SDS011;38141;42.666;23.344;2023-02-01T05:47:48;9.47;;;5.63;;
3177;SDS011;38141;42.666;23.344;2023-02-01T05:50:17;8.77;;;5.40;;
3177;SDS011;38141;42.666;23.344;2023-02-01T05:52:44;8.70;;;5.30;;
3177;SDS011;38141;42.666;23.344;2023-02-01T05:55:10;8.90;;;5.60;;
3177;SDS011;38141;42.666;23.344;2023-02-01T05:57:37;16.13;;;6.10;;
3177;SDS011;38141;42.666;23.344;2023-02-01T06:00:04;11.83;;;6.77;;
3177;SDS011;38141;42.666;23.344;2023-02-01T06:02:35;7.83;;;5.43;;
3177;SDS011;38141;42.666;23.344;2023-02-01T06:05:02;14.57;;;5.40;;
3177;SDS011;38141;42.666;23.344;2023-02-01T06:07:30;6.57;;;4.77;;
3177;SDS011;38141;42.666;23.344;2023-02-01T06:09:57;6.40;;;5.13;;
3177;SDS011;38141;42.666;23.344;2023-02-01T06:12:24;7.97;;;5.80;;
3177;SDS011;38141;42.666;23.344;2023-02-01T06:14:53;13.10;;;5.70;;
3177;SDS011;38141;42.666;23.344;2023-02-01T06:17:20;11.77;;;5.00;;
3177;SDS011;38141;42.666;23.344;2023-02-01T06:19:46;8.13;;;5.23;;
3177;SDS011;38141;42.666;23.344;2023-02-01T06:22:14;10.47;;;4.37;;
3177;SDS011;38141;42.666;23.344;2023-02-01T06:24:42;6.40;;;4.50;;
3177;SDS011;38141;42.666;23.344;2023-02-01T06:27:09;7.33;;;4.90;;
3177;SDS011;38141;42.666;23.344;2023-02-01T06:29:36;13.40;;;4.80;;
3177;SDS011;38141;42.666;23.344;2023-02-01T06:32:02;13.33;;;5.23;;
3177;SDS011;38141;42.666;23.344;2023-02-01T06:34:29;8.37;;;4.20;;
3177;SDS011;38141;42.666;23.344;2023-02-01T06:36:56;8.13;;;4.60;;
3177;SDS011;38141;42.666;23.344;2023-02-01T06:39:23;9.50;;;5.30;;
3177;SDS011;38141;42.666;23.344;2023-02-01T06:41:51;8.63;;;5.10;;
3177;SDS011;38141;42.666;23.344;2023-02-01T06:44:18;6.70;;;4.40;;
3177;SDS011;38141;42.666;23.344;2023-02-01T06:46:46;6.97;;;4.63;;
3177;SDS011;38141;42.666;23.344;2023-02-01T06:49:12;8.50;;;4.93;;
3177;SDS011;38141;42.666;23.344;2023-02-01T06:51:39;9.30;;;5.10;;
3177;SDS011;38141;42.666;23.344;2023-02-01T06:54:06;7.63;;;4.50;;
3177;SDS011;38141;42.666;23.344;2023-02-01T06:56:33;5.73;;;4.60;;
3177;SDS011;38141;42.666;23.344;2023-02-01T06:59:01;7.97;;;5.20;;
3177;SDS011;38141;42.666;23.344;2023-02-01T07:01:29;8.50;;;5.40;;
3177;SDS011;38141;42.666;23.344;2023-02-01T07:03:56;36.83;;;16.37;;
3177;SDS011;38141;42.666;23.344;2023-02-01T07:06:23;46.53;;;20.03;;
3177;SDS011;38141;42.666;23.344;2023-02-01T07:08:50;4.40;;;3.87;;
3177;SDS011;38141;42.666;23.344;2023-02-01T07:11:20;14.40;;;4.13;;
3177;SDS011;38141;42.666;23.344;2023-02-01T07:13:47;9.10;;;4.10;;
3177;SDS011;38141;42.666;23.344;2023-02-01T07:16:17;5.87;;;3.93;;
3177;SDS011;38141;42.666;23.344;2023-02-01T07:18:45;5.83;;;3.60;;
3177;SDS011;38141;42.666;23.344;2023-02-01T07:21:13;7.10;;;3.43;;
3177;SDS011;38141;42.666;23.344;2023-02-01T07:23:39;5.50;;;3.63;;
3177;SDS011;38141;42.666;23.344;2023-02-01T07:26:07;4.57;;;3.77;;
3177;SDS011;38141;42.666;23.344;2023-02-01T07:28:37;4.80;;;4.30;;
3177;SDS011;38141;42.666;23.344;2023-02-01T07:31:04;7.33;;;4.13;;
3177;SDS011;38141;42.666;23.344;2023-02-01T07:33:33;16.70;;;4.77;;
3177;SDS011;38141;42.666;23.344;2023-02-01T07:36:01;6.37;;;4.70;;
3177;SDS011;38141;42.666;23.344;2023-02-01T07:38:30;4.93;;;3.33;;
3177;SDS011;38141;42.666;23.344;2023-02-01T07:40:57;5.30;;;3.70;;
3177;SDS011;38141;42.666;23.344;2023-02-01T07:43:25;9.30;;;4.00;;
3177;SDS011;38141;42.666;23.344;2023-02-01T07:45:52;5.97;;;4.10;;
3177;SDS011;38141;42.666;23.344;2023-02-01T07:48:20;7.37;;;3.63;;
3177;SDS011;38141;42.666;23.344;2023-02-01T07:50:48;8.43;;;4.43;;
3177;SDS011;38141;42.666;23.344;2023-02-01T07:53:22;7.47;;;3.73;;
3177;SDS011;38141;42.666;23.344;2023-02-01T07:55:49;6.80;;;4.20;;
3177;SDS011;38141;42.666;23.344;2023-02-01T07:58:16;6.50;;;4.57;;
3177;SDS011;38141;42.666;23.344;2023-02-01T08:00:43;18.90;;;7.93;;
3177;SDS011;38141;42.666;23.344;2023-02-01T08:03:27;6.27;;;3.80;;
3177;SDS011;38141;42.666;23.344;2023-02-01T08:05:55;7.23;;;4.07;;
3177;SDS011;38141;42.666;23.344;2023-02-01T08:08:22;8.57;;;4.30;;
3177;SDS011;38141;42.666;23.344;2023-02-01T08:10:49;6.13;;;4.10;;
3177;SDS011;38141;42.666;23.344;2023-02-01T08:13:16;11.40;;;4.40;;
3177;SDS011;38141;42.666;23.344;2023-02-01T08:15:42;5.53;;;3.50;;
3177;SDS011;38141;42.666;23.344;2023-02-01T08:18:09;7.03;;;4.30;;
3177;SDS011;38141;42.666;23.344;2023-02-01T08:20:36;5.50;;;3.60;;
3177;SDS011;38141;42.666;23.344;2023-02-01T08:23:08;10.30;;;4.27;;
3177;SDS011;38141;42.666;23.344;2023-02-01T08:25:35;6.97;;;4.00;;
3177;SDS011;38141;42.666;23.344;2023-02-01T08:28:02;7.47;;;4.00;;
3177;SDS011;38141;42.666;23.344;2023-02-01T08:30:30;9.10;;;4.20;;
3177;SDS011;38141;42.666;23.344;2023-02-01T08:32:57;8.53;;;3.87;;
3177;SDS011;38141;42.666;23.344;2023-02-01T08:35:23;5.37;;;3.70;;
3177;SDS011;38141;42.666;23.344;2023-02-01T08:37:50;6.60;;;3.70;;
3177;SDS011;38141;42.666;23.344;2023-02-01T08:40:18;7.43;;;4.33;;
3177;SDS011;38141;42.666;23.344;2023-02-01T08:42:46;5.30;;;3.80;;
3177;SDS011;38141;42.666;23.344;2023-02-01T08:45:24;19.60;;;8.70;;
3177;SDS011;38141;42.666;23.344;2023-02-01T08:47:53;6.33;;;3.73;;
3177;SDS011;38141;42.666;23.344;2023-02-01T08:50:21;6.10;;;3.87;;
3177;SDS011;38141;42.666;23.344;2023-02-01T08:52:49;4.60;;;4.20;;
3177;SDS011;38141;42.666;23.344;2023-02-01T08:55:16;6.57;;;3.30;;
3177;SDS011;38141;42.666;23.344;2023-02-01T08:57:45;9.40;;;3.50;;
3177;SDS011;38141;42.666;23.344;2023-02-01T09:00:13;5.70;;;3.57;;
3177;SDS011;38141;42.666;23.344;2023-02-01T09:02:41;9.67;;;4.00;;
3177;SDS011;38141;42.666;23.344;2023-02-01T09:05:09;5.20;;;3.70;;
3177;SDS011;38141;42.666;23.344;2023-02-01T09:07:36;5.30;;;3.37;;
3177;SDS011;38141;42.666;23.344;2023-02-01T09:10:03;5.10;;;3.20;;
3177;SDS011;38141;42.666;23.344;2023-02-01T09:12:31;4.73;;;3.40;;
3177;SDS011;38141;42.666;23.344;2023-02-01T09:15:00;4.50;;;2.80;;
3177;SDS011;38141;42.666;23.344;2023-02-01T09:17:27;4.77;;;3.67;;
3177;SDS011;38141;42.666;23.344;2023-02-01T09:19:55;5.90;;;3.77;;
3177;SDS011;38141;42.666;23.344;2023-02-01T09:22:22;4.87;;;3.10;;
3177;SDS011;38141;42.666;23.344;2023-02-01T09:24:48;5.80;;;3.60;;
3177;SDS011;38141;42.666;23.344;2023-02-01T09:27:15;7.40;;;3.80;;
3177;SDS011;38141;42.666;23.344;2023-02-01T09:29:42;5.03;;;3.40;;
3177;SDS011;38141;42.666;23.344;2023-02-01T09:32:10;7.70;;;3.60;;
3177;SDS011;38141;42.666;23.344;2023-02-01T09:34:37;4.47;;;3.33;;
3177;SDS011;38141;42.666;23.344;2023-02-01T09:37:04;3.90;;;3.00;;
3177;SDS011;38141;42.666;23.344;2023-02-01T09:39:30;15.40;;;10.00;;
3177;SDS011;38141;42.666;23.344;2023-02-01T09:41:59;8.53;;;5.33;;
3177;SDS011;38141;42.666;23.344;2023-02-01T09:44:40;8.20;;;3.33;;
3177;SDS011;38141;42.666;23.344;2023-02-01T09:47:17;3.30;;;2.37;;
3177;SDS011;38141;42.666;23.344;2023-02-01T09:49:48;6.00;;;3.37;;
3177;SDS011;38141;42.666;23.344;2023-02-01T09:52:19;6.30;;;3.90;;
3177;SDS011;38141;42.666;23.344;2023-02-01T09:54:55;9.03;;;4.03;;
3177;SDS011;38141;42.666;23.344;2023-02-01T09:57:28;7.20;;;4.60;;
3177;SDS011;38141;42.666;23.344;2023-02-01T10:00:09;3.43;;;2.80;;
3177;SDS011;38141;42.666;23.344;2023-02-01T10:02:44;4.07;;;3.10;;
3177;SDS011;38141;42.666;23.344;2023-02-01T10:05:12;5.93;;;2.90;;
3177;SDS011;38141;42.666;23.344;2023-02-01T10:07:43;4.27;;;2.97;;
3177;SDS011;38141;42.666;23.344;2023-02-01T10:10:19;4.60;;;2.70;;
3177;SDS011;38141;42.666;23.344;2023-02-01T10:13:02;4.93;;;2.60;;
3177;SDS011;38141;42.666;23.344;2023-02-01T10:15:55;4.20;;;2.90;;
3177;SDS011;38141;42.666;23.344;2023-02-01T10:18:40;3.70;;;2.90;;
3177;SDS011;38141;42.666;23.344;2023-02-01T10:21:21;3.97;;;3.03;;
3177;SDS011;38141;42.666;23.344;2023-02-01T10:24:12;4.60;;;3.03;;
3177;SDS011;38141;42.666;23.344;2023-02-01T10:26:47;4.30;;;2.97;;
3177;SDS011;38141;42.666;23.344;2023-02-01T10:29:19;3.80;;;3.00;;
3177;SDS011;38141;42.666;23.344;2023-02-01T10:31:48;5.63;;;3.37;;
3177;SDS011;38141;42.666;23.344;2023-02-01T10:34:18;6.60;;;3.30;;
3177;SDS011;38141;42.666;23.344;2023-02-01T10:36:50;5.00;;;2.90;;
3177;SDS011;38141;42.666;23.344;2023-02-01T10:39:20;4.87;;;3.13;;
3177;SDS011;38141;42.666;23.344;2023-02-01T10:41:48;5.80;;;3.40;;
3177;SDS011;38141;42.666;23.344;2023-02-01T10:44:19;6.93;;;3.10;;
3177;SDS011;38141;42.666;23.344;2023-02-01T10:46:48;5.10;;;3.40;;
3177;SDS011;38141;42.666;23.344;2023-02-01T10:49:18;6.13;;;3.47;;
3177;SDS011;38141;42.666;23.344;2023-02-01T10:51:50;7.33;;;3.50;;
3177;SDS011;38141;42.666;23.344;2023-02-01T10:54:21;5.10;;;3.30;;
3177;SDS011;38141;42.666;23.344;2023-02-01T10:56:57;6.23;;;3.27;;
3177;SDS011;38141;42.666;23.344;2023-02-01T10:59:25;4.37;;;3.10;;
3177;SDS011;38141;42.666;23.344;2023-02-01T11:01:58;8.20;;;3.13;;
3177;SDS011;38141;42.666;23.344;2023-02-01T11:04:28;6.17;;;2.77;;
3177;SDS011;38141;42.666;23.344;2023-02-01T11:07:07;4.80;;;3.20;;
3177;SDS011;38141;42.666;23.344;2023-02-01T11:09:42;6.37;;;3.47;;
3177;SDS011;38141;42.666;23.344;2023-02-01T11:12:23;4.30;;;2.73;;
3177;SDS011;38141;42.666;23.344;2023-02-01T11:14:56;7.00;;;3.07;;
3177;SDS011;38141;42.666;23.344;2023-02-01T11:17:28;4.43;;;2.80;;
3177;SDS011;38141;42.666;23.344;2023-02-01T11:20:02;8.50;;;2.43;;
3177;SDS011;38141;42.666;23.344;2023-02-01T11:22:32;2.60;;;2.40;;
3177;SDS011;38141;42.666;23.344;2023-02-01T11:24:58;6.00;;;2.60;;
3177;SDS011;38141;42.666;23.344;2023-02-01T11:27:27;2.40;;;2.20;;
3177;SDS011;38141;42.666;23.344;2023-02-01T11:29:55;3.43;;;2.33;;
3177;SDS011;38141;42.666;23.344;2023-02-01T11:32:25;3.23;;;2.60;;
3177;SDS011;38141;42.666;23.344;2023-02-01T11:34:54;6.80;;;3.07;;
3177;SDS011;38141;42.666;23.344;2023-02-01T11:37:26;8.10;;;4.20;;
3177;SDS011;38141;42.666;23.344;2023-02-01T11:39:56;3.80;;;2.40;;
3177;SDS011;38141;42.666;23.344;2023-02-01T11:42:24;3.67;;;2.97;;
3177;SDS011;38141;42.666;23.344;2023-02-01T11:45:07;4.90;;;2.47;;
3177;SDS011;38141;42.666;23.344;2023-02-01T11:47:44;2.97;;;2.50;;
3177;SDS011;38141;42.666;23.344;2023-02-01T11:50:13;4.90;;;2.30;;
3177;SDS011;38141;42.666;23.344;2023-02-01T11:52:48;4.07;;;2.20;;
3177;SDS011;38141;42.666;23.344;2023-02-01T11:55:32;3.70;;;2.40;;
3177;SDS011;38141;42.666;23.344;2023-02-01T11:58:18;3.57;;;2.50;;
3177;SDS011;38141;42.666;23.344;2023-02-01T12:00:58;4.07;;;2.80;;
3177;SDS011;38141;42.666;23.344;2023-02-01T12:03:45;4.77;;;2.73;;
3177;SDS011;38141;42.666;23.344;2023-02-01T12:06:35;2.33;;;2.10;;
3177;SDS011;38141;42.666;23.344;2023-02-01T12:09:19;3.60;;;2.07;;
3177;SDS011;38141;42.666;23.344;2023-02-01T12:11:57;2.70;;;2.37;;
3177;SDS011;38141;42.666;23.344;2023-02-01T12:14:35;2.67;;;2.40;;
3177;SDS011;38141;42.666;23.344;2023-02-01T12:17:18;5.43;;;2.60;;
3177;SDS011;38141;42.666;23.344;2023-02-01T12:20:14;4.43;;;2.50;;
3177;SDS011;38141;42.666;23.344;2023-02-01T12:22:52;3.17;;;2.40;;
3177;SDS011;38141;42.666;23.344;2023-02-01T12:25:36;3.40;;;2.23;;
3177;SDS011;38141;42.666;23.344;2023-02-01T12:31:11;6.80;;;2.33;;
3177;SDS011;38141;42.666;23.344;2023-02-01T12:34:05;3.17;;;2.03;;
3177;SDS011;38141;42.666;23.344;2023-02-01T12:36:44;2.93;;;2.30;;
3177;SDS011;38141;42.666;23.344;2023-02-01T12:39:19;5.37;;;2.70;;
3177;SDS011;38141;42.666;23.344;2023-02-01T12:41:58;3.33;;;2.43;;
3177;SDS011;38141;42.666;23.344;2023-02-01T12:44:36;4.33;;;2.37;;
3177;SDS011;38141;42.666;23.344;2023-02-01T12:47:13;4.63;;;3.27;;
3177;SDS011;38141;42.666;23.344;2023-02-01T12:49:49;2.33;;;2.13;;
3177;SDS011;38141;42.666;23.344;2023-02-01T12:52:23;3.13;;;2.53;;
3177;SDS011;38141;42.666;23.344;2023-02-01T12:55:01;4.10;;;1.90;;
3177;SDS011;38141;42.666;23.344;2023-02-01T12:57:35;3.53;;;2.30;;
3177;SDS011;38141;42.666;23.344;2023-02-01T13:00:07;3.90;;;2.63;;
3177;SDS011;38141;42.666;23.344;2023-02-01T13:02:49;4.50;;;2.73;;
3177;SDS011;38141;42.666;23.344;2023-02-01T13:05:21;4.33;;;2.20;;
3177;SDS011;38141;42.666;23.344;2023-02-01T13:07:56;3.93;;;2.53;;
3177;SDS011;38141;42.666;23.344;2023-02-01T13:10:28;3.70;;;2.40;;
3177;SDS011;38141;42.666;23.344;2023-02-01T13:13:04;3.90;;;2.33;;
3177;SDS011;38141;42.666;23.344;2023-02-01T13:15:39;2.93;;;2.30;;
3177;SDS011;38141;42.666;23.344;2023-02-01T13:18:11;2.67;;;2.30;;
3177;SDS011;38141;42.666;23.344;2023-02-01T13:20:45;3.67;;;2.40;;
3177;SDS011;38141;42.666;23.344;2023-02-01T13:23:18;5.03;;;2.77;;
3177;SDS011;38141;42.666;23.344;2023-02-01T13:25:52;9.03;;;2.90;;
3177;SDS011;38141;42.666;23.344;2023-02-01T13:28:23;3.87;;;2.77;;
3177;SDS011;38141;42.666;23.344;2023-02-01T13:30:57;5.90;;;3.03;;
3177;SDS011;38141;42.666;23.344;2023-02-01T13:33:49;4.90;;;3.10;;
3177;SDS011;38141;42.666;23.344;2023-02-01T13:36:38;2.30;;;2.10;;
3177;SDS011;38141;42.666;23.344;2023-02-01T13:39:32;2.90;;;2.30;;
3177;SDS011;38141;42.666;23.344;2023-02-01T13:42:14;2.30;;;2.10;;
3177;SDS011;38141;42.666;23.344;2023-02-01T13:44:46;3.83;;;2.40;;
3177;SDS011;38141;42.666;23.344;2023-02-01T13:47:19;6.70;;;2.43;;
3177;SDS011;38141;42.666;23.344;2023-02-01T13:49:50;3.57;;;2.30;;
3177;SDS011;38141;42.666;23.344;2023-02-01T13:52:25;2.27;;;2.07;;
3177;SDS011;38141;42.666;23.344;2023-02-01T13:55:14;3.30;;;2.47;;
3177;SDS011;38141;42.666;23.344;2023-02-01T13:57:50;2.87;;;2.43;;
3177;SDS011;38141;42.666;23.344;2023-02-01T14:00:26;3.00;;;2.23;;
3177;SDS011;38141;42.666;23.344;2023-02-01T14:03:07;2.50;;;2.30;;
3177;SDS011;38141;42.666;23.344;2023-02-01T14:08:45;3.93;;;2.80;;
3177;SDS011;38141;42.666;23.344;2023-02-01T14:11:32;5.33;;;2.60;;
3177;SDS011;38141;42.666;23.344;2023-02-01T14:23:29;5.00;;;3.03;;
3177;SDS011;38141;42.666;23.344;2023-02-01T14:26:06;5.13;;;3.43;;
3177;SDS011;38141;42.666;23.344;2023-02-01T14:28:40;3.87;;;2.30;;
3177;SDS011;38141;42.666;23.344;2023-02-01T14:31:14;5.87;;;3.80;;
3177;SDS011;38141;42.666;23.344;2023-02-01T14:33:45;4.60;;;2.67;;
3177;SDS011;38141;42.666;23.344;2023-02-01T14:36:13;3.47;;;2.27;;
3177;SDS011;38141;42.666;23.344;2023-02-01T14:38:46;3.20;;;2.50;;
3177;SDS011;38141;42.666;23.344;2023-02-01T14:41:23;3.17;;;2.83;;
3177;SDS011;38141;42.666;23.344;2023-02-01T14:49:48;7.07;;;2.90;;
3177;SDS011;38141;42.666;23.344;2023-02-01T14:52:20;2.40;;;2.20;;
3177;SDS011;38141;42.666;23.344;2023-02-01T14:54:51;3.80;;;2.60;;
3177;SDS011;38141;42.666;23.344;2023-02-01T14:57:23;3.33;;;3.00;;
3177;SDS011;38141;42.666;23.344;2023-02-01T14:59:53;4.43;;;3.10;;
3177;SDS011;38141;42.666;23.344;2023-02-01T15:02:26;7.30;;;3.20;;
3177;SDS011;38141;42.666;23.344;2023-02-01T15:04:56;4.90;;;3.27;;
3177;SDS011;38141;42.666;23.344;2023-02-01T15:07:23;3.80;;;3.13;;
3177;SDS011;38141;42.666;23.344;2023-02-01T15:09:52;7.07;;;3.03;;
3177;SDS011;38141;42.666;23.344;2023-02-01T15:12:23;6.13;;;3.50;;
3177;SDS011;38141;42.666;23.344;2023-02-01T15:15:11;5.80;;;3.60;;
3177;SDS011;38141;42.666;23.344;2023-02-01T15:17:42;4.73;;;3.20;;
3177;SDS011;38141;42.666;23.344;2023-02-01T15:20:18;8.70;;;3.53;;
3177;SDS011;38141;42.666;23.344;2023-02-01T15:22:54;3.60;;;2.97;;
3177;SDS011;38141;42.666;23.344;2023-02-01T15:25:23;4.43;;;3.10;;
3177;SDS011;38141;42.666;23.344;2023-02-01T15:27:51;4.37;;;3.10;;
3177;SDS011;38141;42.666;23.344;2023-02-01T15:30:19;3.93;;;2.80;;
3177;SDS011;38141;42.666;23.344;2023-02-01T15:32:48;5.40;;;3.33;;
3177;SDS011;38141;42.666;23.344;2023-02-01T15:35:33;5.17;;;3.60;;
3177;SDS011;38141;42.666;23.344;2023-02-01T15:41:01;5.27;;;3.07;;
3177;SDS011;38141;42.666;23.344;2023-02-01T15:43:31;3.87;;;3.10;;